sensor_id;sensor_type;location;lat;lon;timestamp;P1;durP1;ratioP1;P2;durP2;ratioP2
69991;SDS011;57332;51.320;-0.580;2024-01-11T00:00:50;4.38;;;1.65;;
69991;SDS011;57332;51.320;-0.580;2024-01-11T00:03:17;4.50;;;1.70;;
69991;SDS011;57332;51.320;-0.580;2024-01-11T00:05:45;4.65;;;1.60;;
69991;SDS011;57332;51.320;-0.580;2024-01-11T07:45:23;5.15;;;2.50;;
69991;SDS011;57332;51.320;-0.580;2024-01-11T07:47:51;4.72;;;1.98;;
69991;SDS011;57332;51.320;-0.580;2024-01-11T07:50:18;4.40;;;2.40;;
69991;SDS011;57332;51.320;-0.580;2024-01-11T07:52:45;7.32;;;2.53;;
69991;SDS011;57332;51.320;-0.580;2024-01-11T07:55:14;9.45;;;2.67;;
69991;SDS011;57332;51.320;-0.580;2024-01-11T07:57:41;8.15;;;2.70;;
69991;SDS011;57332;51.320;-0.580;2024-01-11T08:00:08;9.32;;;2.67;;
69991;SDS011;57332;51.320;-0.580;2024-01-11T08:02:35;13.50;;;3.17;;
69991;SDS011;57332;51.320;-0.580;2024-01-11T08:05:02;10.52;;;2.80;;
69991;SDS011;57332;51.320;-0.580;2024-01-11T08:07:30;8.02;;;2.80;;
69991;SDS011;57332;51.320;-0.580;2024-01-11T08:09:57;7.78;;;2.55;;
69991;SDS011;57332;51.320;-0.580;2024-01-11T08:12:24;7.07;;;2.60;;
69991;SDS011;57332;51.320;-0.580;2024-01-11T08:14:51;8.27;;;3.10;;
69991;SDS011;57332;51.320;-0.580;2024-01-11T08:17:18;8.48;;;2.00;;
69991;SDS011;57332;51.320;-0.580;2024-01-11T08:19:45;10.02;;;2.67;;
69991;SDS011;57332;51.320;-0.580;2024-01-11T08:22:12;8.77;;;3.13;;
69991;SDS011;57332;51.320;-0.580;2024-01-11T08:24:39;7.47;;;2.38;;
69991;SDS011;57332;51.320;-0.580;2024-01-11T08:27:06;8.70;;;2.35;;
69991;SDS011;57332;51.320;-0.580;2024-01-11T08:29:33;7.85;;;2.20;;
69991;SDS011;57332;51.320;-0.580;2024-01-11T08:32:00;4.80;;;2.10;;
69991;SDS011;57332;51.320;-0.580;2024-01-11T08:34:49;9.25;;;2.58;;
69991;SDS011;57332;51.320;-0.580;2024-01-11T08:37:16;4.88;;;1.92;;
69991;SDS011;57332;51.320;-0.580;2024-01-11T08:39:46;8.40;;;2.33;;
69991;SDS011;57332;51.320;-0.580;2024-01-11T08:42:13;7.47;;;2.15;;
69991;SDS011;57332;51.320;-0.580;2024-01-11T08:44:42;3.33;;;2.08;;
69991;SDS011;57332;51.320;-0.580;2024-01-11T08:47:10;6.03;;;2.28;;
69991;SDS011;57332;51.320;-0.580;2024-01-11T08:49:38;6.90;;;2.55;;
69991;SDS011;57332;51.320;-0.580;2024-01-11T08:52:06;7.30;;;2.50;;
69991;SDS011;57332;51.320;-0.580;2024-01-11T08:54:34;7.03;;;2.20;;
69991;SDS011;57332;51.320;-0.580;2024-01-11T08:57:01;4.85;;;1.88;;
69991;SDS011;57332;51.320;-0.580;2024-01-11T08:59:28;8.23;;;2.53;;
69991;SDS011;57332;51.320;-0.580;2024-01-11T09:01:55;5.15;;;2.13;;
69991;SDS011;57332;51.320;-0.580;2024-01-11T09:04:36;6.55;;;2.22;;
69991;SDS011;57332;51.320;-0.580;2024-01-11T09:07:03;6.22;;;1.90;;
69991;SDS011;57332;51.320;-0.580;2024-01-11T09:09:30;5.72;;;2.78;;
69991;SDS011;57332;51.320;-0.580;2024-01-11T09:12:04;9.32;;;2.58;;
69991;SDS011;57332;51.320;-0.580;2024-01-11T09:14:31;4.05;;;2.15;;
69991;SDS011;57332;51.320;-0.580;2024-01-11T09:16:58;5.22;;;2.47;;
69991;SDS011;57332;51.320;-0.580;2024-01-11T09:19:25;7.40;;;2.30;;
69991;SDS011;57332;51.320;-0.580;2024-01-11T09:21:52;6.60;;;2.25;;
69991;SDS011;57332;51.320;-0.580;2024-01-11T09:24:19;8.55;;;2.20;;
69991;SDS011;57332;51.320;-0.580;2024-01-11T09:26:46;5.53;;;2.33;;
69991;SDS011;57332;51.320;-0.580;2024-01-11T09:29:13;8.48;;;2.63;;
69991;SDS011;57332;51.320;-0.580;2024-01-11T09:31:39;9.70;;;3.53;;
69991;SDS011;57332;51.320;-0.580;2024-01-11T09:34:06;7.18;;;2.83;;
69991;SDS011;57332;51.320;-0.580;2024-01-11T09:36:34;8.07;;;3.22;;
69991;SDS011;57332;51.320;-0.580;2024-01-11T09:39:01;5.78;;;2.35;;
69991;SDS011;57332;51.320;-0.580;2024-01-11T09:41:28;9.35;;;2.55;;
69991;SDS011;57332;51.320;-0.580;2024-01-11T09:43:56;5.15;;;2.33;;
69991;SDS011;57332;51.320;-0.580;2024-01-11T09:46:25;6.93;;;2.45;;
69991;SDS011;57332;51.320;-0.580;2024-01-11T09:48:51;8.90;;;2.28;;
69991;SDS011;57332;51.320;-0.580;2024-01-11T09:51:20;9.80;;;2.67;;
69991;SDS011;57332;51.320;-0.580;2024-01-11T09:53:47;6.25;;;2.63;;
69991;SDS011;57332;51.320;-0.580;2024-01-11T09:56:16;5.45;;;2.50;;
69991;SDS011;57332;51.320;-0.580;2024-01-11T09:58:45;11.57;;;3.60;;
69991;SDS011;57332;51.320;-0.580;2024-01-11T10:01:15;5.78;;;2.22;;
69991;SDS011;57332;51.320;-0.580;2024-01-11T10:03:43;7.55;;;2.60;;
69991;SDS011;57332;51.320;-0.580;2024-01-11T10:06:10;6.38;;;2.33;;
69991;SDS011;57332;51.320;-0.580;2024-01-11T10:08:37;6.05;;;2.53;;
69991;SDS011;57332;51.320;-0.580;2024-01-11T10:11:04;5.30;;;2.67;;
69991;SDS011;57332;51.320;-0.580;2024-01-11T10:13:31;8.30;;;2.90;;
69991;SDS011;57332;51.320;-0.580;2024-01-11T10:16:05;7.25;;;2.72;;
69991;SDS011;57332;51.320;-0.580;2024-01-11T10:18:33;7.80;;;3.53;;
69991;SDS011;57332;51.320;-0.580;2024-01-11T10:21:00;7.18;;;2.53;;
69991;SDS011;57332;51.320;-0.580;2024-01-11T10:23:28;5.25;;;2.42;;
69991;SDS011;57332;51.320;-0.580;2024-01-11T10:25:56;5.95;;;2.83;;
69991;SDS011;57332;51.320;-0.580;2024-01-11T10:28:24;7.90;;;3.13;;
69991;SDS011;57332;51.320;-0.580;2024-01-11T10:30:51;6.47;;;2.60;;
69991;SDS011;57332;51.320;-0.580;2024-01-11T10:33:21;11.55;;;3.05;;
69991;SDS011;57332;51.320;-0.580;2024-01-11T10:35:49;6.75;;;2.92;;
69991;SDS011;57332;51.320;-0.580;2024-01-11T10:38:17;5.78;;;2.70;;
69991;SDS011;57332;51.320;-0.580;2024-01-11T10:40:44;7.53;;;2.72;;
69991;SDS011;57332;51.320;-0.580;2024-01-11T10:43:11;5.93;;;2.88;;
69991;SDS011;57332;51.320;-0.580;2024-01-11T10:45:38;6.40;;;3.08;;
69991;SDS011;57332;51.320;-0.580;2024-01-11T10:48:15;7.70;;;2.80;;
69991;SDS011;57332;51.320;-0.580;2024-01-11T10:50:44;7.28;;;2.95;;
69991;SDS011;57332;51.320;-0.580;2024-01-11T10:53:21;7.80;;;2.70;;
69991;SDS011;57332;51.320;-0.580;2024-01-11T10:55:52;7.45;;;3.00;;
69991;SDS011;57332;51.320;-0.580;2024-01-11T10:58:19;7.97;;;3.10;;
69991;SDS011;57332;51.320;-0.580;2024-01-11T11:00:46;8.40;;;2.55;;
69991;SDS011;57332;51.320;-0.580;2024-01-11T11:03:15;6.03;;;2.17;;
69991;SDS011;57332;51.320;-0.580;2024-01-11T11:05:42;8.15;;;2.65;;
69991;SDS011;57332;51.320;-0.580;2024-01-11T11:08:10;8.65;;;2.38;;
69991;SDS011;57332;51.320;-0.580;2024-01-11T11:10:39;8.07;;;2.90;;
69991;SDS011;57332;51.320;-0.580;2024-01-11T11:13:08;7.28;;;3.20;;
69991;SDS011;57332;51.320;-0.580;2024-01-11T11:15:35;6.53;;;3.28;;
69991;SDS011;57332;51.320;-0.580;2024-01-11T11:18:04;6.38;;;3.03;;
69991;SDS011;57332;51.320;-0.580;2024-01-11T11:20:32;6.13;;;2.60;;
69991;SDS011;57332;51.320;-0.580;2024-01-11T11:23:02;7.75;;;2.80;;
69991;SDS011;57332;51.320;-0.580;2024-01-11T11:25:30;6.80;;;2.22;;
69991;SDS011;57332;51.320;-0.580;2024-01-11T11:28:00;6.95;;;2.30;;
69991;SDS011;57332;51.320;-0.580;2024-01-11T11:30:36;6.50;;;1.92;;
69991;SDS011;57332;51.320;-0.580;2024-01-11T11:35:32;4.25;;;1.88;;
69991;SDS011;57332;51.320;-0.580;2024-01-11T11:37:59;4.00;;;1.85;;
69991;SDS011;57332;51.320;-0.580;2024-01-11T11:40:32;3.80;;;1.85;;
69991;SDS011;57332;51.320;-0.580;2024-01-11T11:43:01;4.60;;;1.70;;
69991;SDS011;57332;51.320;-0.580;2024-01-11T11:45:28;6.38;;;1.95;;
69991;SDS011;57332;51.320;-0.580;2024-01-11T11:47:55;4.78;;;1.88;;
69991;SDS011;57332;51.320;-0.580;2024-01-11T11:50:25;5.22;;;1.70;;
69991;SDS011;57332;51.320;-0.580;2024-01-11T11:52:55;6.10;;;1.90;;
69991;SDS011;57332;51.320;-0.580;2024-01-11T11:55:25;2.90;;;1.48;;
69991;SDS011;57332;51.320;-0.580;2024-01-11T11:57:52;6.25;;;1.80;;
69991;SDS011;57332;51.320;-0.580;2024-01-11T12:00:20;4.82;;;1.60;;
69991;SDS011;57332;51.320;-0.580;2024-01-11T12:02:47;3.90;;;1.60;;
69991;SDS011;57332;51.320;-0.580;2024-01-11T12:05:15;4.50;;;1.52;;
69991;SDS011;57332;51.320;-0.580;2024-01-11T12:07:43;2.58;;;1.50;;
69991;SDS011;57332;51.320;-0.580;2024-01-11T12:10:10;2.55;;;1.40;;
69991;SDS011;57332;51.320;-0.580;2024-01-11T12:12:37;5.30;;;1.42;;
69991;SDS011;57332;51.320;-0.580;2024-01-11T12:15:05;4.78;;;1.20;;
69991;SDS011;57332;51.320;-0.580;2024-01-11T12:17:32;3.58;;;1.20;;
69991;SDS011;57332;51.320;-0.580;2024-01-11T12:19:59;3.33;;;1.20;;
69991;SDS011;57332;51.320;-0.580;2024-01-11T12:22:26;3.03;;;1.50;;
69991;SDS011;57332;51.320;-0.580;2024-01-11T12:24:53;4.80;;;1.45;;
69991;SDS011;57332;51.320;-0.580;2024-01-11T12:27:20;2.58;;;1.15;;
69991;SDS011;57332;51.320;-0.580;2024-01-11T12:29:47;2.92;;;1.30;;
69991;SDS011;57332;51.320;-0.580;2024-01-11T12:32:24;2.75;;;1.10;;
69991;SDS011;57332;51.320;-0.580;2024-01-11T12:34:52;1.77;;;0.90;;
69991;SDS011;57332;51.320;-0.580;2024-01-11T12:37:20;1.98;;;1.17;;
69991;SDS011;57332;51.320;-0.580;2024-01-11T12:39:47;4.03;;;1.60;;
69991;SDS011;57332;51.320;-0.580;2024-01-11T12:42:14;5.18;;;1.17;;
69991;SDS011;57332;51.320;-0.580;2024-01-11T12:44:41;3.05;;;1.00;;
69991;SDS011;57332;51.320;-0.580;2024-01-11T12:47:09;2.78;;;1.13;;
69991;SDS011;57332;51.320;-0.580;2024-01-11T12:49:36;1.85;;;1.10;;
69991;SDS011;57332;51.320;-0.580;2024-01-11T12:52:04;2.28;;;1.00;;
69991;SDS011;57332;51.320;-0.580;2024-01-11T12:54:32;2.30;;;1.00;;
69991;SDS011;57332;51.320;-0.580;2024-01-11T12:56:59;3.35;;;1.20;;
69991;SDS011;57332;51.320;-0.580;2024-01-11T12:59:26;2.70;;;1.02;;
69991;SDS011;57332;51.320;-0.580;2024-01-11T13:01:53;3.10;;;1.35;;
69991;SDS011;57332;51.320;-0.580;2024-01-11T13:04:20;2.25;;;1.13;;
69991;SDS011;57332;51.320;-0.580;2024-01-11T13:06:47;2.80;;;1.35;;
69991;SDS011;57332;51.320;-0.580;2024-01-11T13:09:14;2.13;;;1.10;;
69991;SDS011;57332;51.320;-0.580;2024-01-11T13:11:41;4.47;;;1.50;;
69991;SDS011;57332;51.320;-0.580;2024-01-11T13:14:08;2.95;;;1.15;;
69991;SDS011;57332;51.320;-0.580;2024-01-11T13:16:42;4.65;;;1.20;;
69991;SDS011;57332;51.320;-0.580;2024-01-11T13:19:09;3.80;;;1.40;;
69991;SDS011;57332;51.320;-0.580;2024-01-11T13:21:52;1.58;;;0.95;;
69991;SDS011;57332;51.320;-0.580;2024-01-11T13:24:19;2.75;;;1.58;;
69991;SDS011;57332;51.320;-0.580;2024-01-11T13:26:46;2.08;;;1.10;;
69991;SDS011;57332;51.320;-0.580;2024-01-11T13:29:16;2.78;;;1.00;;
69991;SDS011;57332;51.320;-0.580;2024-01-11T13:31:43;1.60;;;1.00;;
69991;SDS011;57332;51.320;-0.580;2024-01-11T13:34:10;3.03;;;1.30;;
69991;SDS011;57332;51.320;-0.580;2024-01-11T13:36:36;3.55;;;1.52;;
69991;SDS011;57332;51.320;-0.580;2024-01-11T13:39:04;3.03;;;1.00;;
69991;SDS011;57332;51.320;-0.580;2024-01-11T13:41:30;2.58;;;1.13;;
69991;SDS011;57332;51.320;-0.580;2024-01-11T13:43:57;2.45;;;1.20;;
69991;SDS011;57332;51.320;-0.580;2024-01-11T13:46:24;2.63;;;1.20;;
69991;SDS011;57332;51.320;-0.580;2024-01-11T13:48:51;2.15;;;1.20;;
69991;SDS011;57332;51.320;-0.580;2024-01-11T13:51:19;6.85;;;1.30;;
69991;SDS011;57332;51.320;-0.580;2024-01-11T13:53:46;2.17;;;1.02;;
69991;SDS011;57332;51.320;-0.580;2024-01-11T13:56:15;2.22;;;1.17;;
69991;SDS011;57332;51.320;-0.580;2024-01-11T13:58:42;2.03;;;1.50;;
69991;SDS011;57332;51.320;-0.580;2024-01-11T14:01:11;2.47;;;1.33;;
69991;SDS011;57332;51.320;-0.580;2024-01-11T14:03:39;2.53;;;1.30;;
69991;SDS011;57332;51.320;-0.580;2024-01-11T14:06:06;2.45;;;1.52;;
69991;SDS011;57332;51.320;-0.580;2024-01-11T14:08:33;2.83;;;1.20;;
69991;SDS011;57332;51.320;-0.580;2024-01-11T14:11:00;3.70;;;1.60;;
69991;SDS011;57332;51.320;-0.580;2024-01-11T14:13:27;4.13;;;1.80;;
69991;SDS011;57332;51.320;-0.580;2024-01-11T14:15:54;2.30;;;1.40;;
69991;SDS011;57332;51.320;-0.580;2024-01-11T14:18:22;3.03;;;1.60;;
69991;SDS011;57332;51.320;-0.580;2024-01-11T14:20:49;3.55;;;1.60;;
69991;SDS011;57332;51.320;-0.580;2024-01-11T14:23:16;3.70;;;1.45;;
69991;SDS011;57332;51.320;-0.580;2024-01-11T14:25:43;2.92;;;1.40;;
69991;SDS011;57332;51.320;-0.580;2024-01-11T14:28:10;4.20;;;1.90;;
69991;SDS011;57332;51.320;-0.580;2024-01-11T14:30:37;4.70;;;2.08;;
69991;SDS011;57332;51.320;-0.580;2024-01-11T14:33:04;2.60;;;1.52;;
69991;SDS011;57332;51.320;-0.580;2024-01-11T14:35:31;2.55;;;1.55;;
69991;SDS011;57332;51.320;-0.580;2024-01-11T14:37:58;4.13;;;1.60;;
69991;SDS011;57332;51.320;-0.580;2024-01-11T14:40:25;5.95;;;1.50;;
69991;SDS011;57332;51.320;-0.580;2024-01-11T14:42:54;2.92;;;1.02;;
69991;SDS011;57332;51.320;-0.580;2024-01-11T14:45:21;3.03;;;1.63;;
69991;SDS011;57332;51.320;-0.580;2024-01-11T14:47:48;4.53;;;1.42;;
69991;SDS011;57332;51.320;-0.580;2024-01-11T14:50:15;1.88;;;1.15;;
69991;SDS011;57332;51.320;-0.580;2024-01-11T14:52:42;3.28;;;1.23;;
69991;SDS011;57332;51.320;-0.580;2024-01-11T14:55:10;2.75;;;1.10;;
69991;SDS011;57332;51.320;-0.580;2024-01-11T14:57:38;1.88;;;0.90;;
69991;SDS011;57332;51.320;-0.580;2024-01-11T15:00:08;2.22;;;1.00;;
69991;SDS011;57332;51.320;-0.580;2024-01-11T15:02:37;3.45;;;1.20;;
69991;SDS011;57332;51.320;-0.580;2024-01-11T15:05:05;3.83;;;1.35;;
69991;SDS011;57332;51.320;-0.580;2024-01-11T15:07:32;3.00;;;1.33;;
69991;SDS011;57332;51.320;-0.580;2024-01-11T15:09:59;3.53;;;0.98;;
69991;SDS011;57332;51.320;-0.580;2024-01-11T15:12:26;1.23;;;0.73;;
69991;SDS011;57332;51.320;-0.580;2024-01-11T15:14:53;3.63;;;0.93;;
69991;SDS011;57332;51.320;-0.580;2024-01-11T15:17:20;2.08;;;1.40;;
69991;SDS011;57332;51.320;-0.580;2024-01-11T15:19:47;3.38;;;1.35;;
69991;SDS011;57332;51.320;-0.580;2024-01-11T15:22:14;3.33;;;1.52;;
69991;SDS011;57332;51.320;-0.580;2024-01-11T15:24:42;3.00;;;1.30;;
69991;SDS011;57332;51.320;-0.580;2024-01-11T15:27:09;2.75;;;1.10;;
69991;SDS011;57332;51.320;-0.580;2024-01-11T15:29:37;1.83;;;0.85;;
69991;SDS011;57332;51.320;-0.580;2024-01-11T15:32:05;3.25;;;1.02;;
69991;SDS011;57332;51.320;-0.580;2024-01-11T15:34:32;3.75;;;1.00;;
69991;SDS011;57332;51.320;-0.580;2024-01-11T15:37:00;2.72;;;1.30;;
69991;SDS011;57332;51.320;-0.580;2024-01-11T15:39:27;2.60;;;1.33;;
69991;SDS011;57332;51.320;-0.580;2024-01-11T15:41:56;2.40;;;1.23;;
69991;SDS011;57332;51.320;-0.580;2024-01-11T15:44:25;2.67;;;1.23;;
69991;SDS011;57332;51.320;-0.580;2024-01-11T15:46:55;2.65;;;1.40;;
69991;SDS011;57332;51.320;-0.580;2024-01-11T15:49:22;4.43;;;1.23;;
69991;SDS011;57332;51.320;-0.580;2024-01-11T15:51:49;3.30;;;1.23;;
69991;SDS011;57332;51.320;-0.580;2024-01-11T15:54:16;2.55;;;1.25;;
69991;SDS011;57332;51.320;-0.580;2024-01-11T15:56:43;2.10;;;1.30;;
69991;SDS011;57332;51.320;-0.580;2024-01-11T15:59:13;2.13;;;1.20;;
69991;SDS011;57332;51.320;-0.580;2024-01-11T16:01:40;6.45;;;1.52;;
69991;SDS011;57332;51.320;-0.580;2024-01-11T16:04:25;5.15;;;1.25;;
69991;SDS011;57332;51.320;-0.580;2024-01-11T16:06:52;2.90;;;1.58;;
69991;SDS011;57332;51.320;-0.580;2024-01-11T16:09:22;4.20;;;1.60;;
69991;SDS011;57332;51.320;-0.580;2024-01-11T16:11:50;6.78;;;2.10;;
69991;SDS011;57332;51.320;-0.580;2024-01-11T16:14:17;4.93;;;2.05;;
69991;SDS011;57332;51.320;-0.580;2024-01-11T16:16:44;4.82;;;2.55;;
69991;SDS011;57332;51.320;-0.580;2024-01-11T16:19:11;4.07;;;2.25;;
69991;SDS011;57332;51.320;-0.580;2024-01-11T16:21:38;8.20;;;2.25;;
69991;SDS011;57332;51.320;-0.580;2024-01-11T16:24:06;6.20;;;2.17;;
69991;SDS011;57332;51.320;-0.580;2024-01-11T16:26:33;4.68;;;1.70;;
69991;SDS011;57332;51.320;-0.580;2024-01-11T16:29:00;3.95;;;1.80;;
69991;SDS011;57332;51.320;-0.580;2024-01-11T16:31:27;2.45;;;1.60;;
69991;SDS011;57332;51.320;-0.580;2024-01-11T16:33:55;3.38;;;1.60;;
69991;SDS011;57332;51.320;-0.580;2024-01-11T16:36:23;7.60;;;1.67;;
69991;SDS011;57332;51.320;-0.580;2024-01-11T16:38:50;3.30;;;1.80;;
69991;SDS011;57332;51.320;-0.580;2024-01-11T16:41:18;3.17;;;1.30;;
69991;SDS011;57332;51.320;-0.580;2024-01-11T16:43:45;4.53;;;1.60;;
69991;SDS011;57332;51.320;-0.580;2024-01-11T16:46:19;4.50;;;2.00;;
69991;SDS011;57332;51.320;-0.580;2024-01-11T16:48:49;5.97;;;2.10;;
69991;SDS011;57332;51.320;-0.580;2024-01-11T16:51:16;4.28;;;2.42;;
69991;SDS011;57332;51.320;-0.580;2024-01-11T16:53:43;3.75;;;1.90;;
69991;SDS011;57332;51.320;-0.580;2024-01-11T16:56:11;19.05;;;6.70;;
69991;SDS011;57332;51.320;-0.580;2024-01-11T16:58:38;10.65;;;3.30;;
69991;SDS011;57332;51.320;-0.580;2024-01-11T17:01:05;8.50;;;3.00;;
69991;SDS011;57332;51.320;-0.580;2024-01-11T17:03:34;4.25;;;1.95;;
69991;SDS011;57332;51.320;-0.580;2024-01-11T17:06:02;3.70;;;1.52;;
69991;SDS011;57332;51.320;-0.580;2024-01-11T17:08:29;5.18;;;1.73;;
69991;SDS011;57332;51.320;-0.580;2024-01-11T17:10:56;2.97;;;1.45;;
69991;SDS011;57332;51.320;-0.580;2024-01-11T17:13:23;5.10;;;1.85;;
69991;SDS011;57332;51.320;-0.580;2024-01-11T17:15:50;4.65;;;1.83;;
69991;SDS011;57332;51.320;-0.580;2024-01-11T17:18:17;6.63;;;2.88;;
69991;SDS011;57332;51.320;-0.580;2024-01-11T17:20:44;7.07;;;2.85;;
69991;SDS011;57332;51.320;-0.580;2024-01-11T17:23:12;5.57;;;2.78;;
69991;SDS011;57332;51.320;-0.580;2024-01-11T17:25:41;5.50;;;2.88;;
69991;SDS011;57332;51.320;-0.580;2024-01-11T17:28:08;5.40;;;2.85;;
69991;SDS011;57332;51.320;-0.580;2024-01-11T17:30:35;9.88;;;3.22;;
69991;SDS011;57332;51.320;-0.580;2024-01-11T17:33:02;4.78;;;2.30;;
69991;SDS011;57332;51.320;-0.580;2024-01-11T17:35:30;6.47;;;3.25;;
69991;SDS011;57332;51.320;-0.580;2024-01-11T17:37:57;5.93;;;3.22;;
69991;SDS011;57332;51.320;-0.580;2024-01-11T17:40:23;8.60;;;2.90;;
69991;SDS011;57332;51.320;-0.580;2024-01-11T17:42:50;7.72;;;3.28;;
69991;SDS011;57332;51.320;-0.580;2024-01-11T17:45:17;7.82;;;2.75;;
69991;SDS011;57332;51.320;-0.580;2024-01-11T17:47:44;9.55;;;3.10;;
69991;SDS011;57332;51.320;-0.580;2024-01-11T17:50:11;7.28;;;3.05;;
69991;SDS011;57332;51.320;-0.580;2024-01-11T17:52:39;9.43;;;3.03;;
69991;SDS011;57332;51.320;-0.580;2024-01-11T17:55:08;7.38;;;3.03;;
69991;SDS011;57332;51.320;-0.580;2024-01-11T17:57:35;11.00;;;3.30;;
69991;SDS011;57332;51.320;-0.580;2024-01-11T18:00:03;5.43;;;2.45;;
69991;SDS011;57332;51.320;-0.580;2024-01-11T18:02:30;6.90;;;2.97;;
69991;SDS011;57332;51.320;-0.580;2024-01-11T18:04:57;6.60;;;2.58;;
69991;SDS011;57332;51.320;-0.580;2024-01-11T18:07:24;12.10;;;3.15;;
69991;SDS011;57332;51.320;-0.580;2024-01-11T18:09:52;9.95;;;3.22;;
69991;SDS011;57332;51.320;-0.580;2024-01-11T18:12:19;11.13;;;2.72;;
69991;SDS011;57332;51.320;-0.580;2024-01-11T18:14:46;8.10;;;2.65;;
69991;SDS011;57332;51.320;-0.580;2024-01-11T18:17:13;7.55;;;3.00;;
69991;SDS011;57332;51.320;-0.580;2024-01-11T18:19:40;7.18;;;2.95;;
69991;SDS011;57332;51.320;-0.580;2024-01-11T18:22:07;6.55;;;2.88;;
69991;SDS011;57332;51.320;-0.580;2024-01-11T18:24:37;7.95;;;2.55;;
69991;SDS011;57332;51.320;-0.580;2024-01-11T18:27:04;6.28;;;2.60;;
69991;SDS011;57332;51.320;-0.580;2024-01-11T18:29:34;8.85;;;2.53;;
69991;SDS011;57332;51.320;-0.580;2024-01-11T18:32:02;9.48;;;2.35;;
69991;SDS011;57332;51.320;-0.580;2024-01-11T18:34:31;6.25;;;2.15;;
69991;SDS011;57332;51.320;-0.580;2024-01-11T18:36:58;5.78;;;2.40;;
69991;SDS011;57332;51.320;-0.580;2024-01-11T18:39:24;8.32;;;2.60;;
69991;SDS011;57332;51.320;-0.580;2024-01-11T18:41:51;7.07;;;2.28;;
69991;SDS011;57332;51.320;-0.580;2024-01-11T18:44:18;5.43;;;2.10;;
69991;SDS011;57332;51.320;-0.580;2024-01-11T18:46:47;8.93;;;2.22;;
69991;SDS011;57332;51.320;-0.580;2024-01-11T18:49:14;4.20;;;1.90;;
69991;SDS011;57332;51.320;-0.580;2024-01-11T18:51:41;6.68;;;1.67;;
69991;SDS011;57332;51.320;-0.580;2024-01-11T18:54:08;7.05;;;2.53;;
69991;SDS011;57332;51.320;-0.580;2024-01-11T18:56:36;4.95;;;2.22;;
69991;SDS011;57332;51.320;-0.580;2024-01-11T18:59:03;12.65;;;2.40;;
69991;SDS011;57332;51.320;-0.580;2024-01-11T19:01:30;3.72;;;1.52;;
69991;SDS011;57332;51.320;-0.580;2024-01-11T19:03:57;6.28;;;2.22;;
69991;SDS011;57332;51.320;-0.580;2024-01-11T19:06:25;10.43;;;2.15;;
69991;SDS011;57332;51.320;-0.580;2024-01-11T19:08:53;10.32;;;2.63;;
69991;SDS011;57332;51.320;-0.580;2024-01-11T19:11:20;3.92;;;1.83;;
69991;SDS011;57332;51.320;-0.580;2024-01-11T19:13:47;7.22;;;2.15;;
69991;SDS011;57332;51.320;-0.580;2024-01-11T19:16:14;7.78;;;2.05;;
69991;SDS011;57332;51.320;-0.580;2024-01-11T19:18:41;7.15;;;2.22;;
69991;SDS011;57332;51.320;-0.580;2024-01-11T19:21:08;6.45;;;2.08;;
69991;SDS011;57332;51.320;-0.580;2024-01-11T19:23:35;5.20;;;1.73;;
69991;SDS011;57332;51.320;-0.580;2024-01-11T19:26:05;5.63;;;1.73;;
69991;SDS011;57332;51.320;-0.580;2024-01-11T19:28:32;8.75;;;1.65;;
69991;SDS011;57332;51.320;-0.580;2024-01-11T19:30:59;4.90;;;1.92;;
69991;SDS011;57332;51.320;-0.580;2024-01-11T19:33:26;7.82;;;2.35;;
69991;SDS011;57332;51.320;-0.580;2024-01-11T19:35:55;5.22;;;1.90;;
69991;SDS011;57332;51.320;-0.580;2024-01-11T19:38:23;6.72;;;1.80;;
69991;SDS011;57332;51.320;-0.580;2024-01-11T19:40:51;7.57;;;1.45;;
69991;SDS011;57332;51.320;-0.580;2024-01-11T19:43:17;4.70;;;1.58;;
69991;SDS011;57332;51.320;-0.580;2024-01-11T19:45:44;6.28;;;1.63;;
69991;SDS011;57332;51.320;-0.580;2024-01-11T19:48:11;5.07;;;1.88;;
69991;SDS011;57332;51.320;-0.580;2024-01-11T19:50:39;6.20;;;1.40;;
69991;SDS011;57332;51.320;-0.580;2024-01-11T19:53:08;3.63;;;1.42;;
69991;SDS011;57332;51.320;-0.580;2024-01-11T19:55:36;4.82;;;1.45;;
69991;SDS011;57332;51.320;-0.580;2024-01-11T19:58:03;8.30;;;1.48;;
69991;SDS011;57332;51.320;-0.580;2024-01-11T20:00:30;7.60;;;1.55;;
69991;SDS011;57332;51.320;-0.580;2024-01-11T20:02:57;4.38;;;1.30;;
69991;SDS011;57332;51.320;-0.580;2024-01-11T20:05:24;6.40;;;1.67;;
69991;SDS011;57332;51.320;-0.580;2024-01-11T20:07:52;5.35;;;1.90;;
69991;SDS011;57332;51.320;-0.580;2024-01-11T20:10:19;2.33;;;1.00;;
69991;SDS011;57332;51.320;-0.580;2024-01-11T20:12:46;4.90;;;1.20;;
69991;SDS011;57332;51.320;-0.580;2024-01-11T20:15:14;6.15;;;1.13;;
69991;SDS011;57332;51.320;-0.580;2024-01-11T20:17:40;4.07;;;1.00;;
69991;SDS011;57332;51.320;-0.580;2024-01-11T20:20:07;4.28;;;0.98;;
69991;SDS011;57332;51.320;-0.580;2024-01-11T20:22:35;4.72;;;0.95;;
69991;SDS011;57332;51.320;-0.580;2024-01-11T20:25:02;2.67;;;0.75;;
69991;SDS011;57332;51.320;-0.580;2024-01-11T20:27:29;4.10;;;0.98;;
69991;SDS011;57332;51.320;-0.580;2024-01-11T20:29:56;4.05;;;1.30;;
69991;SDS011;57332;51.320;-0.580;2024-01-11T20:32:24;1.45;;;0.65;;
69991;SDS011;57332;51.320;-0.580;2024-01-11T20:34:51;0.75;;;0.50;;
69991;SDS011;57332;51.320;-0.580;2024-01-11T20:37:18;1.50;;;0.77;;
69991;SDS011;57332;51.320;-0.580;2024-01-11T20:39:45;1.48;;;0.55;;
69991;SDS011;57332;51.320;-0.580;2024-01-11T20:42:12;2.88;;;0.98;;
69991;SDS011;57332;51.320;-0.580;2024-01-11T20:44:39;3.38;;;0.70;;
69991;SDS011;57332;51.320;-0.580;2024-01-11T20:47:06;1.10;;;0.50;;
69991;SDS011;57332;51.320;-0.580;2024-01-11T20:49:33;0.80;;;0.40;;
69991;SDS011;57332;51.320;-0.580;2024-01-11T20:52:00;2.47;;;0.50;;
69991;SDS011;57332;51.320;-0.580;2024-01-11T20:54:27;1.80;;;0.98;;
69991;SDS011;57332;51.320;-0.580;2024-01-11T20:56:54;2.05;;;0.60;;
69991;SDS011;57332;51.320;-0.580;2024-01-11T20:59:22;1.15;;;0.52;;
69991;SDS011;57332;51.320;-0.580;2024-01-11T21:01:49;3.08;;;1.05;;
69991;SDS011;57332;51.320;-0.580;2024-01-11T21:04:16;2.20;;;0.65;;
69991;SDS011;57332;51.320;-0.580;2024-01-11T21:06:43;2.88;;;1.00;;
69991;SDS011;57332;51.320;-0.580;2024-01-11T21:09:12;2.60;;;0.70;;
69991;SDS011;57332;51.320;-0.580;2024-01-11T21:11:39;2.63;;;0.63;;
69991;SDS011;57332;51.320;-0.580;2024-01-11T21:14:07;3.13;;;0.75;;
69991;SDS011;57332;51.320;-0.580;2024-01-11T21:16:34;4.30;;;0.77;;
69991;SDS011;57332;51.320;-0.580;2024-01-11T21:19:02;2.53;;;0.47;;
69991;SDS011;57332;51.320;-0.580;2024-01-11T21:21:38;3.92;;;0.73;;
69991;SDS011;57332;51.320;-0.580;2024-01-11T21:24:05;2.42;;;0.57;;
69991;SDS011;57332;51.320;-0.580;2024-01-11T21:26:32;2.72;;;0.60;;
69991;SDS011;57332;51.320;-0.580;2024-01-11T21:28:59;2.22;;;1.00;;
69991;SDS011;57332;51.320;-0.580;2024-01-11T21:31:27;2.22;;;0.75;;
69991;SDS011;57332;51.320;-0.580;2024-01-11T21:33:54;4.32;;;1.00;;
69991;SDS011;57332;51.320;-0.580;2024-01-11T21:36:22;2.20;;;1.10;;
69991;SDS011;57332;51.320;-0.580;2024-01-11T21:38:53;3.58;;;1.20;;
69991;SDS011;57332;51.320;-0.580;2024-01-11T21:41:22;2.67;;;1.00;;
69991;SDS011;57332;51.320;-0.580;2024-01-11T21:43:50;3.10;;;0.70;;
69991;SDS011;57332;51.320;-0.580;2024-01-11T21:46:17;3.55;;;0.95;;
69991;SDS011;57332;51.320;-0.580;2024-01-11T21:48:43;5.22;;;1.00;;
69991;SDS011;57332;51.320;-0.580;2024-01-11T21:51:11;3.20;;;1.00;;
69991;SDS011;57332;51.320;-0.580;2024-01-11T21:53:38;1.85;;;0.88;;
69991;SDS011;57332;51.320;-0.580;2024-01-11T21:56:05;4.93;;;1.40;;
69991;SDS011;57332;51.320;-0.580;2024-01-11T21:58:32;3.67;;;1.13;;
69991;SDS011;57332;51.320;-0.580;2024-01-11T22:00:59;3.45;;;1.30;;
69991;SDS011;57332;51.320;-0.580;2024-01-11T22:03:27;4.53;;;1.30;;
69991;SDS011;57332;51.320;-0.580;2024-01-11T22:05:54;7.15;;;1.45;;
69991;SDS011;57332;51.320;-0.580;2024-01-11T22:08:21;4.43;;;1.10;;
69991;SDS011;57332;51.320;-0.580;2024-01-11T22:10:48;7.80;;;2.30;;
69991;SDS011;57332;51.320;-0.580;2024-01-11T22:13:17;3.25;;;1.35;;
69991;SDS011;57332;51.320;-0.580;2024-01-11T22:15:44;5.55;;;1.45;;